Time;durP1;ratioP1;P1;durP2;ratioP2;P2;SDS_P1;SDS_P2;PMS_P1;PMS_P2;Temp;Humidity;BMP_temperature;BMP_pressure;BME280_temperature;BME280_humidity;BME280_pressure;Samples;Min_cycle;Max_cycle;Signal;HPM_P1;HPM_P2
2023/08/02 00:06:27;;;;;;;10.57;8.38;;;29.70;29.40;;;;;;21007307;28;20041;-57
2023/08/02 00:16:28;;;;;;;11.88;10.35;;;29.70;29.50;;;;;;21005017;28;20048;-57
2023/08/02 00:26:29;;;;;;;5.63;3.17;;;29.60;29.90;;;;;;21004200;28;20131;-57
2023/08/02 00:36:29;;;;;;;4.63;3.55;;;29.50;30.20;;;;;;21004930;28;20375;-56
2023/08/02 00:46:30;;;;;;;5.00;3.75;;;29.30;30.50;;;;;;21001770;28;20048;-57
2023/08/02 00:56:31;;;;;;;3.08;2.45;;;29.10;30.90;;;;;;21003512;28;20048;-57
2023/08/02 01:06:46;;;;;;;5.60;3.08;;;29.10;31.30;;;;;;21002778;28;20040;-57
2023/08/02 01:16:49;;;;;;;7.07;5.20;;;29.00;31.60;;;;;;21000646;28;20447;-57
2023/08/02 01:26:52;;;;;;;4.25;3.13;;;29.10;31.90;;;;;;21001172;28;20063;-57
2023/08/02 01:36:53;;;;;;;5.65;2.80;;;29.00;32.40;;;;;;21000288;28;20481;-57
2023/08/02 01:46:54;;;;;;;9.52;7.32;;;28.80;32.70;;;;;;20998188;28;20127;-56
2023/08/02 01:56:54;;;;;;;3.17;2.50;;;28.70;33.20;;;;;;20998748;28;20059;-56
2023/08/02 02:06:55;;;;;;;4.60;2.80;;;28.70;33.60;;;;;;20998021;28;20052;-57
2023/08/02 02:16:56;;;;;;;7.38;2.90;;;28.60;33.80;;;;;;20998444;28;20089;-56
2023/08/02 02:26:57;;;;;;;4.53;3.45;;;28.40;34.00;;;;;;20997050;28;20044;-56
2023/08/02 02:36:57;;;;;;;5.20;2.95;;;28.20;34.10;;;;;;20995102;28;20052;-57
2023/08/02 02:46:58;;;;;;;;;;;28.10;34.60;;;;;;20996375;28;20048;-57
2023/08/02 02:57:00;;;;;;;5.82;2.65;;;27.90;35.00;;;;;;20995589;28;19928;-57
2023/08/02 03:07:01;;;;;;;3.75;3.08;;;27.90;35.90;;;;;;20994845;28;20044;-57
2023/08/02 03:17:02;;;;;;;;;;;27.80;36.30;;;;;;21010872;28;20053;-57
2023/08/02 03:27:02;;;;;;;5.40;3.57;;;27.60;36.60;;;;;;21010787;28;19920;-57
2023/08/02 03:37:03;;;;;;;6.70;3.25;;;27.50;36.40;;;;;;21010112;28;20402;-57
2023/08/02 03:47:04;;;;;;;5.18;3.28;;;26.90;36.30;;;;;;21008170;28;20051;-57
2023/08/02 03:57:06;;;;;;;4.85;2.90;;;26.60;36.50;;;;;;21008395;28;20060;-57
2023/08/02 04:07:06;;;;;;;6.57;3.30;;;26.10;36.20;;;;;;21006796;28;20055;-56
2023/08/02 04:17:07;;;;;;;7.50;4.50;;;26.10;36.10;;;;;;21007968;28;20088;-56
2023/08/02 04:27:08;;;;;;;9.53;4.10;;;26.10;35.90;;;;;;21004518;28;20500;-56
2023/08/02 04:37:08;;;;;;;5.43;3.30;;;26.10;35.40;;;;;;21005207;28;20809;-57
2023/08/02 04:47:09;;;;;;;5.23;3.37;;;26.00;36.30;;;;;;21003371;28;20044;-56
2023/08/02 04:57:10;;;;;;;6.57;3.10;;;25.70;36.10;;;;;;21003911;28;20048;-56
2023/08/02 05:07:11;;;;;;;7.40;4.80;;;25.60;36.50;;;;;;21003224;28;20045;-58
2023/08/02 05:17:11;;;;;;;7.40;3.60;;;25.50;36.80;;;;;;21001318;28;20511;-56
2023/08/02 05:27:12;;;;;;;7.00;3.37;;;25.50;36.80;;;;;;21001887;28;20464;-56
2023/08/02 05:37:13;;;;;;;7.43;4.10;;;25.40;37.40;;;;;;21000608;28;20068;-58
2023/08/02 05:47:14;;;;;;;5.97;3.53;;;25.40;37.70;;;;;;20999628;28;20040;-57
2023/08/02 05:57:14;;;;;;;8.97;4.13;;;25.40;37.90;;;;;;20999731;28;20397;-57
2023/08/02 06:07:15;;;;;;;8.10;3.77;;;25.30;37.90;;;;;;20999050;28;20119;-59
2023/08/02 06:17:16;;;;;;;6.70;3.27;;;25.40;37.60;;;;;;20915882;28;20087;-57
2023/08/02 06:27:16;;;;;;;10.07;3.60;;;25.30;38.20;;;;;;20914512;28;20124;-57
2023/08/02 06:37:17;;;;;;;7.77;4.27;;;25.40;38.30;;;;;;20914146;28;20090;-58
2023/08/02 06:47:18;;;;;;;14.07;4.83;;;25.60;38.50;;;;;;20911938;28;20127;-58
2023/08/02 06:57:31;;;;;;;8.83;4.37;;;26.10;38.40;;;;;;20912651;28;20399;-57
2023/08/02 07:07:31;;;;;;;6.63;3.92;;;27.10;40.00;;;;;;20912470;28;20505;-57
2023/08/02 07:17:32;;;;;;;;;;;27.90;38.20;;;;;;20995166;28;20080;-57
2023/08/02 07:27:33;;;;;;;6.05;4.40;;;28.20;38.30;;;;;;20994471;28;19920;-56
2023/08/02 07:37:33;;;;;;;9.63;3.58;;;28.90;37.40;;;;;;20993665;28;20048;-57
2023/08/02 07:47:35;;;;;;;13.35;5.72;;;29.30;37.20;;;;;;20993364;28;20049;-59
2023/08/02 07:57:36;;;;;;;13.30;4.55;;;29.60;34.60;;;;;;20997403;28;20536;-57
2023/08/02 08:07:37;;;;;;;16.65;5.85;;;29.90;34.20;;;;;;21007137;28;20393;-57
2023/08/02 08:17:37;;;;;;;19.58;4.55;;;30.40;34.00;;;;;;21006364;28;20057;-58
2023/08/02 08:27:38;;;;;;;12.05;4.25;;;30.60;34.40;;;;;;21005733;28;20047;-58
2023/08/02 08:37:39;;;;;;;14.52;4.03;;;31.00;34.30;;;;;;21003912;28;20044;-56
2023/08/02 08:47:40;;;;;;;6.57;3.05;;;31.10;34.30;;;;;;21002961;28;20157;-58
2023/08/02 08:57:42;;;;;;;5.32;2.90;;;31.30;37.20;;;;;;21001994;28;20131;-57
2023/08/02 09:07:44;;;;;;;6.78;2.83;;;31.40;36.30;;;;;;21001313;28;20127;-58
2023/08/02 09:17:46;;;;;;;7.13;4.00;;;31.60;35.70;;;;;;21001905;28;20409;-58
2023/08/02 09:27:48;;;;;;;4.55;2.92;;;31.80;35.40;;;;;;21000112;28;20044;-58
2023/08/02 09:37:49;;;;;;;6.80;4.43;;;31.90;34.80;;;;;;21000119;28;20040;-58
2023/08/02 09:47:53;;;;;;;8.00;3.20;;;32.00;35.10;;;;;;20999131;28;20064;-58
2023/08/02 09:57:54;;;;;;;6.00;3.38;;;32.20;35.30;;;;;;20998696;28;20047;-58
2023/08/02 10:07:56;;;;;;;3.35;2.80;;;32.30;34.90;;;;;;20997035;28;20062;-61
2023/08/02 10:17:59;;;;;;;6.03;2.97;;;32.50;34.20;;;;;;20996195;28;20087;-59
2023/08/02 10:28:00;;;;;;;4.32;3.15;;;32.50;34.00;;;;;;20995565;28;20075;-58
2023/08/02 10:38:01;;;;;;;4.40;2.97;;;32.60;33.70;;;;;;20994459;28;20040;-60
2023/08/02 10:48:27;;;;;;;12.02;4.53;;;32.80;32.90;;;;;;20994739;28;20044;-59
2023/08/02 10:58:27;;;;;;;4.88;2.53;;;32.80;32.80;;;;;;20995234;28;20123;-57
2023/08/02 11:08:28;;;;;;;6.03;2.92;;;33.10;30.50;;;;;;20994255;28;20111;-58
2023/08/02 11:18:33;;;;;;;3.93;2.77;;;33.10;29.20;;;;;;20994431;28;20045;-58
2023/08/02 11:28:45;;;;;;;2.80;2.30;;;33.30;26.80;;;;;;20992490;28;20293;-58
2023/08/02 11:38:46;;;;;;;4.88;2.45;;;33.60;24.60;;;;;;21008955;28;20049;-59
2023/08/02 11:48:50;;;;;;;4.22;2.90;;;33.50;23.20;;;;;;21009627;28;20045;-59
2023/08/02 11:58:52;;;;;;;4.97;2.90;;;33.60;22.40;;;;;;21006571;28;20040;-57
2023/08/02 12:08:57;;;;;;;5.65;2.90;;;33.50;22.60;;;;;;21006708;28;20188;-58
2023/08/02 12:18:58;;;;;;;4.25;2.97;;;33.90;22.30;;;;;;21007633;28;20044;-58
2023/08/02 12:29:00;;;;;;;4.95;3.28;;;34.30;22.10;;;;;;21004724;28;20045;-59
2023/08/02 12:39:01;;;;;;;4.90;2.60;;;34.30;22.50;;;;;;21005872;28;20048;-59
2023/08/02 12:49:02;;;;;;;4.18;2.70;;;34.10;22.70;;;;;;21003495;28;20048;-59
2023/08/02 12:59:02;;;;;;;3.60;2.80;;;34.20;23.00;;;;;;21004025;28;20525;-60
2023/08/02 13:09:04;;;;;;;4.47;2.50;;;34.10;22.80;;;;;;21002696;28;20091;-58
2023/08/02 13:19:04;;;;;;;5.85;2.72;;;34.20;23.80;;;;;;21002067;28;20512;-58
2023/08/02 13:29:05;;;;;;;5.28;2.97;;;34.40;23.10;;;;;;21002348;28;20076;-59
2023/08/02 13:39:06;;;;;;;4.07;2.70;;;34.40;23.10;;;;;;21001685;28;20095;-58
2023/08/02 13:49:06;;;;;;;3.65;2.80;;;34.80;22.70;;;;;;20999200;28;20056;-59
2023/08/02 13:59:07;;;;;;;4.35;2.88;;;34.50;22.60;;;;;;20997631;28;20119;-58
2023/08/02 14:09:08;;;;;;;3.45;3.15;;;34.60;22.20;;;;;;20997800;28;20061;-59
2023/08/02 14:19:09;;;;;;;4.10;2.30;;;34.60;22.50;;;;;;20997316;28;20054;-58
2023/08/02 14:29:09;;;;;;;3.00;2.70;;;34.90;22.10;;;;;;20995286;28;20083;-57
2023/08/02 14:39:10;;;;;;;4.15;3.05;;;34.80;23.20;;;;;;20995499;28;20072;-58
2023/08/02 14:49:11;;;;;;;3.58;2.42;;;34.90;23.80;;;;;;20996081;28;20044;-57
2023/08/02 14:59:12;;;;;;;5.93;2.17;;;34.80;24.50;;;;;;20993074;28;20045;-59
2023/08/02 15:09:13;;;;;;;4.67;2.67;;;34.80;24.50;;;;;;20991833;28;20410;-57
2023/08/02 15:19:14;;;;;;;5.13;2.75;;;34.70;24.60;;;;;;20993059;28;20296;-58
2023/08/02 15:29:15;;;;;;;2.40;1.92;;;34.60;24.20;;;;;;20994232;28;20048;-58
2023/08/02 15:39:15;;;;;;;3.65;2.17;;;34.60;23.80;;;;;;20992898;28;20040;-59
2023/08/02 15:49:16;;;;;;;4.28;2.45;;;34.70;23.90;;;;;;20993578;28;20512;-59
2023/08/02 15:59:17;;;;;;;2.33;1.45;;;34.70;23.80;;;;;;20993155;28;20080;-57
2023/08/02 16:09:18;;;;;;;3.40;2.17;;;34.80;23.20;;;;;;20992641;28;20060;-59
2023/08/02 16:19:18;;;;;;;2.70;1.85;;;34.70;23.50;;;;;;20996998;28;20044;-58
2023/08/02 16:29:19;;;;;;;3.20;1.40;;;34.70;23.80;;;;;;21006286;28;20490;-59
2023/08/02 16:39:20;;;;;;;3.28;1.20;;;34.60;24.40;;;;;;21005912;28;20068;-58
2023/08/02 16:49:21;;;;;;;2.25;1.63;;;34.40;24.30;;;;;;21005313;28;20051;-57
2023/08/02 16:59:22;;;;;;;2.58;1.27;;;34.20;24.90;;;;;;21003096;28;20080;-57
2023/08/02 17:09:22;;;;;;;2.08;1.48;;;34.20;25.10;;;;;;21003122;28;20067;-58
2023/08/02 17:19:23;;;;;;;1.98;1.20;;;34.40;25.10;;;;;;21001514;28;20055;-59
2023/08/02 17:29:24;;;;;;;1.85;1.00;;;34.10;25.30;;;;;;21000580;28;20062;-58
2023/08/02 17:39:25;;;;;;;8.95;4.18;;;34.10;25.40;;;;;;21001297;28;20436;-58
2023/08/02 17:49:25;;;;;;;3.47;1.20;;;33.90;25.80;;;;;;21000018;28;20044;-58
2023/08/02 17:59:27;;;;;;;2.78;0.90;;;33.70;25.50;;;;;;20982739;28;20052;-58
2023/08/02 18:09:27;;;;;;;1.52;0.90;;;33.60;25.60;;;;;;20996879;28;20182;-57
2023/08/02 18:19:28;;;;;;;2.78;1.10;;;33.40;25.90;;;;;;20996283;28;20071;-58
2023/08/02 18:29:29;;;;;;;2.38;0.70;;;33.30;25.40;;;;;;20997327;28;20538;-59
2023/08/02 18:39:33;;;;;;;6.63;1.85;;;33.10;26.30;;;;;;20997060;28;20489;-59
2023/08/02 18:49:35;;;;;;;1.40;0.90;;;32.90;29.30;;;;;;20995379;28;20106;-60
2023/08/02 18:59:35;;;;;;;2.85;0.90;;;32.50;30.80;;;;;;20986779;28;20616;-59
2023/08/02 19:09:36;;;;;;;1.85;0.88;;;32.30;31.80;;;;;;20990906;28;20429;-58
2023/08/02 19:19:37;;;;;;;1.30;0.80;;;32.10;32.50;;;;;;20987537;28;20413;-58
2023/08/02 19:29:43;;;;;;;1.58;0.90;;;31.80;33.30;;;;;;20992829;28;20389;-58
2023/08/02 19:39:45;;;;;;;3.08;1.10;;;31.50;34.30;;;;;;20994540;28;20419;-59
2023/08/02 19:49:45;;;;;;;6.32;0.77;;;31.30;35.20;;;;;;20993029;28;20048;-58
2023/08/02 19:59:46;;;;;;;2.08;1.10;;;31.10;36.10;;;;;;21008444;28;20506;-57
2023/08/02 20:09:52;;;;;;;3.28;0.98;;;30.90;36.80;;;;;;21007106;28;20056;-58
2023/08/02 20:19:53;;;;;;;4.00;0.90;;;30.70;37.80;;;;;;21006026;28;20044;-58
2023/08/02 20:29:53;;;;;;;2.28;0.75;;;30.50;38.80;;;;;;21005364;28;20497;-58
2023/08/02 20:39:55;;;;;;;1.63;0.73;;;30.40;38.90;;;;;;21005657;28;20132;-59
2023/08/02 20:49:56;;;;;;;2.83;0.63;;;30.10;39.50;;;;;;21005594;28;20096;-57
2023/08/02 20:59:57;;;;;;;1.52;0.80;;;30.00;39.80;;;;;;21004384;28;20060;-59
2023/08/02 21:09:58;;;;;;;3.35;0.90;;;29.80;40.10;;;;;;21001711;28;20056;-59
2023/08/02 21:20:05;;;;;;;3.50;2.50;;;29.70;40.70;;;;;;21002944;28;20040;-58
2023/08/02 21:30:14;;;;;;;1.15;0.60;;;29.60;41.30;;;;;;21000579;28;20105;-58
2023/08/02 21:40:16;;;;;;;1.50;0.60;;;29.40;42.10;;;;;;20999628;28;20040;-58
2023/08/02 21:50:19;;;;;;;1.77;1.05;;;29.30;43.40;;;;;;21000192;28;20045;-59
2023/08/02 22:00:20;;;;;;;1.85;0.80;;;29.10;43.90;;;;;;20999133;28;20076;-60
2023/08/02 22:10:21;;;;;;;2.60;0.80;;;29.00;44.20;;;;;;20997611;28;20098;-58
2023/08/02 22:20:22;;;;;;;2.40;1.00;;;28.80;44.80;;;;;;20995698;28;20074;-57
2023/08/02 22:30:23;;;;;;;2.45;1.23;;;28.60;45.00;;;;;;20997086;28;20041;-58
2023/08/02 22:40:24;;;;;;;3.55;2.63;;;28.50;45.30;;;;;;20995418;28;20048;-57
2023/08/02 22:50:24;;;;;;;2.08;1.08;;;28.40;45.60;;;;;;20995609;28;20089;-57
2023/08/02 23:00:28;;;;;;;2.05;1.23;;;28.30;45.70;;;;;;20995463;28;20125;-58
2023/08/02 23:10:38;;;;;;;1.80;1.10;;;28.20;45.80;;;;;;20994519;28;20106;-58
2023/08/02 23:20:47;;;;;;;2.23;1.07;;;28.10;45.50;;;;;;20993517;28;20076;-58
2023/08/02 23:30:48;;;;;;;2.85;0.93;;;27.90;45.70;;;;;;21003343;28;20402;-57
2023/08/02 23:40:49;;;;;;;;;;;27.80;45.70;;;;;;21009702;28;20055;-57
2023/08/02 23:50:50;;;;;;;2.30;0.60;;;27.60;45.90;;;;;;21009720;28;20306;-57
